Time;durP1;ratioP1;P1;durP2;ratioP2;P2;SDS_P1;SDS_P2;PMS_P1;PMS_P2;Temp;Humidity;BMP_temperature;BMP_pressure;BME280_temperature;BME280_humidity;BME280_pressure;Samples;Min_cycle;Max_cycle;Signal;HPM_P1;HPM_P2
2022/01/03 00:00:14;;;;;;;10.07;2.33;;;;;;;10.20;59.43;95621.25;5076751;28;20497;-75
2022/01/03 00:03:04;;;;;;;7.95;2.33;;;;;;;10.09;59.98;95624.16;5110278;27;20056;-75
2022/01/03 00:05:30;;;;;;;11.07;2.70;;;;;;;10.06;60.54;95609.69;5092317;27;20089;-75
2022/01/03 00:07:57;;;;;;;8.38;2.30;;;;;;;10.04;61.08;95609.16;5115401;27;20044;-75
2022/01/03 00:10:24;;;;;;;6.30;2.33;;;;;;;10.05;60.75;95618.63;5095110;28;20119;-75
2022/01/03 00:12:49;;;;;;;7.45;2.70;;;;;;;10.10;60.97;95594.16;5090680;28;20109;-75
2022/01/03 00:15:18;;;;;;;5.28;2.50;;;;;;;10.12;61.08;95599.97;5090206;28;20544;-75
2022/01/03 00:17:44;;;;;;;6.70;2.40;;;;;;;10.05;60.86;95592.34;5089916;28;20516;-74
2022/01/03 00:20:11;;;;;;;6.70;2.28;;;;;;;10.04;61.48;95593.38;5092042;28;20066;-74
2022/01/03 00:22:44;;;;;;;5.70;2.75;;;;;;;10.00;61.73;95582.63;5119088;27;20043;-75
2022/01/03 00:25:16;;;;;;;4.25;2.13;;;;;;;10.05;62.40;95592.34;5078122;28;20040;-75
2022/01/03 00:27:57;;;;;;;6.35;2.15;;;;;;;10.04;62.29;95585.50;5115473;27;20054;-75
2022/01/03 00:30:25;;;;;;;6.43;2.10;;;;;;;9.97;62.88;95558.69;5099696;28;20036;-75
2022/01/03 00:32:51;;;;;;;5.68;2.30;;;;;;;9.90;63.65;95574.72;5106589;28;20036;-75
2022/01/03 00:35:20;;;;;;;8.02;2.53;;;;;;;9.88;63.75;95577.63;5089214;28;20048;-75
2022/01/03 00:37:47;;;;;;;7.85;2.33;;;;;;;9.99;63.69;95567.09;5089674;28;20044;-75
2022/01/03 00:40:14;;;;;;;6.78;2.10;;;;;;;10.01;63.71;95575.50;5109510;27;20044;-74
2022/01/03 00:42:40;;;;;;;7.18;1.98;;;;;;;9.96;64.08;95562.38;5117795;27;20062;-74
2022/01/03 00:45:07;;;;;;;5.55;2.50;;;;;;;10.11;63.58;95564.97;5089670;28;20066;-75
2022/01/03 00:47:34;;;;;;;5.07;2.22;;;;;;;10.08;63.58;95576.03;5089569;28;20044;-75
2022/01/03 00:50:05;;;;;;;5.22;1.95;;;;;;;9.88;64.82;95571.56;5089444;28;20053;-75
2022/01/03 00:52:30;;;;;;;3.95;1.70;;;;;;;10.04;64.31;95596.00;5089223;28;20090;-74
2022/01/03 00:54:56;;;;;;;4.68;1.88;;;;;;;10.05;64.78;95598.38;5091184;28;20048;-74
2022/01/03 00:57:43;;;;;;;5.78;2.00;;;;;;;9.91;64.80;95586.81;5094016;28;20054;-74
2022/01/03 01:00:10;;;;;;;5.53;1.90;;;;;;;9.88;65.21;95596.03;5106562;28;20047;-74
2022/01/03 01:02:37;;;;;;;5.30;1.90;;;;;;;10.06;65.38;95593.91;5102812;28;20051;-75
2022/01/03 01:05:06;;;;;;;2.63;1.40;;;;;;;10.10;64.72;95589.72;5090970;28;20047;-74
2022/01/03 01:07:32;;;;;;;8.45;2.47;;;;;;;10.04;65.06;95601.28;5089747;28;20091;-75
2022/01/03 01:10:04;;;;;;;6.45;2.13;;;;;;;10.04;65.33;95596.00;5105753;27;20092;-75
2022/01/03 01:12:30;;;;;;;4.47;1.98;;;;;;;9.88;66.23;95603.91;5105622;27;20452;-75
2022/01/03 01:14:56;;;;;;;4.65;1.95;;;;;;;9.95;66.02;95603.63;5097343;28;20044;-75
2022/01/03 01:17:25;;;;;;;5.68;1.98;;;;;;;9.75;66.58;95593.13;5088885;28;20044;-75
2022/01/03 01:19:51;;;;;;;5.75;2.00;;;;;;;9.78;66.80;95588.13;5100653;27;20053;-75
2022/01/03 01:22:19;;;;;;;12.82;2.10;;;;;;;9.72;67.16;95599.69;5101357;27;20088;-74
2022/01/03 01:24:59;;;;;;;4.82;1.60;;;;;;;9.90;66.47;95587.88;5098735;28;20122;-75
2022/01/03 01:30:11;;;;;;;5.22;1.92;;;;;;;9.81;67.40;95587.63;5097966;27;20752;-75
2022/01/03 01:32:42;;;;;;;4.32;2.03;;;;;;;9.86;66.70;95582.34;5114684;27;20421;-75
2022/01/03 01:35:09;;;;;;;6.10;1.83;;;;;;;9.68;67.76;95570.53;5088504;28;20048;-74
2022/01/03 01:37:37;;;;;;;6.10;1.98;;;;;;;9.65;67.41;95572.88;5088431;28;20054;-75
2022/01/03 01:40:04;;;;;;;6.45;1.88;;;;;;;9.68;67.83;95582.84;5109664;27;20036;-75
2022/01/03 01:42:31;;;;;;;4.95;2.10;;;;;;;9.77;67.61;95594.44;5115030;27;20047;-75
2022/01/03 01:45:01;;;;;;;5.32;1.70;;;;;;;9.71;68.30;95592.84;5103185;28;20134;-75
2022/01/03 01:47:27;;;;;;;7.03;2.10;;;;;;;9.81;67.92;95592.88;5089191;28;20866;-75
2022/01/03 01:49:55;;;;;;;5.07;2.08;;;;;;;9.71;68.28;95603.34;5100985;27;20043;-74
2022/01/03 01:52:25;;;;;;;5.47;1.90;;;;;;;9.75;68.39;95604.41;5095385;28;20040;-75
2022/01/03 01:55:04;;;;;;;9.05;2.00;;;;;;;9.75;68.63;95609.66;5092327;28;20505;-75
2022/01/03 01:58:01;;;;;;;5.65;1.80;;;;;;;9.70;68.71;95601.78;5088358;28;20582;-75
2022/01/03 02:00:27;;;;;;;3.90;1.63;;;;;;;9.62;69.11;95610.19;5112871;28;20047;-75
2022/01/03 02:02:52;;;;;;;2.10;1.50;;;;;;;9.67;69.43;95597.84;5109323;28;20071;-74
2022/01/03 02:05:33;;;;;;;10.27;2.08;;;;;;;9.63;69.55;95596.00;5093586;28;20120;-74
2022/01/03 02:08:05;;;;;;;5.72;1.90;;;;;;;9.58;70.11;95588.09;5088487;28;20040;-75
2022/01/03 02:10:42;;;;;;;7.43;1.58;;;;;;;9.69;69.71;95584.44;5113176;28;20050;-75
2022/01/03 02:13:09;;;;;;;3.92;1.52;;;;;;;9.70;69.56;95586.03;5109267;28;20040;-75
2022/01/03 02:15:37;;;;;;;3.70;1.58;;;;;;;9.69;69.85;95569.44;5108527;28;20086;-75
2022/01/03 02:18:03;;;;;;;8.35;1.95;;;;;;;9.54;70.24;95570.22;5111408;27;20043;-74
2022/01/03 02:20:30;;;;;;;6.72;1.75;;;;;;;9.62;69.55;95558.41;5108949;27;20065;-75
2022/01/03 02:22:57;;;;;;;7.03;1.60;;;;;;;9.52;70.26;95564.47;5109382;28;20050;-74
2022/01/03 02:25:24;;;;;;;5.97;1.67;;;;;;;9.56;69.89;95563.94;5097559;28;20040;-75
2022/01/03 02:27:52;;;;;;;3.45;1.60;;;;;;;9.49;70.11;95564.97;5085309;28;20088;-74
2022/01/03 02:30:28;;;;;;;2.83;1.52;;;;;;;9.53;70.27;95560.75;5099698;28;20036;-74
2022/01/03 02:32:54;;;;;;;9.15;1.85;;;;;;;9.54;70.07;95557.09;5091852;28;20101;-74
2022/01/03 02:35:20;;;;;;;3.80;1.70;;;;;;;9.61;69.78;95566.56;5091678;28;20047;-74
2022/01/03 02:37:48;;;;;;;4.78;1.77;;;;;;;9.45;70.28;95558.69;5091692;28;20044;-74
2022/01/03 02:40:14;;;;;;;4.57;1.50;;;;;;;9.52;70.03;95564.47;5101031;28;20044;-73
2022/01/03 02:42:41;;;;;;;5.82;1.88;;;;;;;9.56;69.76;95569.19;5107516;28;20036;-74
2022/01/03 02:45:09;;;;;;;3.88;1.60;;;;;;;9.42;70.42;95567.03;5098331;28;20055;-74
2022/01/03 02:47:35;;;;;;;5.10;1.90;;;;;;;9.54;70.05;95551.84;5092175;28;20043;-75
2022/01/03 02:50:02;;;;;;;8.52;2.45;;;;;;;9.47;69.93;95561.81;5093143;28;20037;-74
2022/01/03 02:52:28;;;;;;;4.80;1.38;;;;;;;9.46;69.96;95565.47;5113804;27;20039;-75
2022/01/03 02:54:53;;;;;;;4.45;1.50;;;;;;;9.53;69.61;95549.47;5102026;27;20059;-75
2022/01/03 02:57:23;;;;;;;5.50;2.22;;;;;;;9.47;69.86;95561.81;5091753;28;20040;-75
2022/01/03 02:59:56;;;;;;;6.93;1.63;;;;;;;9.53;70.10;95560.75;5095499;27;20518;-75
2022/01/03 03:02:24;;;;;;;7.60;2.45;;;;;;;9.60;69.74;95557.13;5123041;27;20039;-77
2022/01/03 03:04:52;;;;;;;7.60;2.10;;;;;;;9.67;69.49;95570.78;5097371;28;20052;-75
2022/01/03 03:07:23;;;;;;;5.70;1.60;;;;;;;9.64;70.20;95576.53;5091404;28;20048;-76
2022/01/03 03:09:49;;;;;;;5.00;1.50;;;;;;;9.65;69.96;95588.63;5108323;28;20462;-76
2022/01/03 03:12:15;;;;;;;6.82;1.42;;;;;;;9.52;70.37;95585.47;5104219;28;20040;-75
2022/01/03 03:14:40;;;;;;;3.55;1.38;;;;;;;9.56;70.35;95598.09;5092375;28;20093;-76
2022/01/03 03:17:06;;;;;;;6.15;1.83;;;;;;;9.72;69.85;95578.66;5091089;28;20051;-76
2022/01/03 03:19:32;;;;;;;3.47;1.50;;;;;;;9.61;70.68;95587.56;5104030;27;20111;-75
2022/01/03 03:21:57;;;;;;;6.55;1.70;;;;;;;9.47;70.77;95576.81;5098765;27;20133;-75
2022/01/03 03:24:23;;;;;;;8.90;1.60;;;;;;;9.57;70.61;95597.03;5090959;28;20044;-75
2022/01/03 03:26:48;;;;;;;7.65;1.95;;;;;;;9.48;71.03;95573.91;5090547;28;20051;-75
2022/01/03 03:29:14;;;;;;;4.65;1.65;;;;;;;9.58;70.52;95588.09;5090118;28;20509;-76
2022/01/03 03:31:40;;;;;;;5.55;1.55;;;;;;;9.61;70.51;95582.31;5099185;27;20047;-76
2022/01/03 03:34:05;;;;;;;6.03;1.80;;;;;;;9.54;70.78;95578.13;5111501;27;20109;-76
2022/01/03 03:36:31;;;;;;;5.50;1.45;;;;;;;9.56;70.93;95574.44;5103050;28;20036;-76
2022/01/03 03:38:57;;;;;;;5.75;1.67;;;;;;;9.49;70.75;95559.72;5106844;27;20047;-75
2022/01/03 03:41:22;;;;;;;4.88;1.48;;;;;;;9.62;70.72;95573.41;5106126;27;20040;-76
2022/01/03 03:43:48;;;;;;;5.78;1.60;;;;;;;9.60;70.52;95580.75;5091138;28;20509;-75
2022/01/03 03:46:14;;;;;;;5.75;1.50;;;;;;;9.62;70.26;95584.69;5089967;28;20110;-76
2022/01/03 03:48:39;;;;;;;3.17;1.67;;;;;;;9.59;70.54;95574.69;5100319;28;20043;-76
2022/01/03 03:51:05;;;;;;;3.67;1.40;;;;;;;9.60;70.20;95580.75;5093727;27;20067;-76
2022/01/03 03:53:31;;;;;;;9.57;1.73;;;;;;;9.48;71.29;95576.53;5110866;27;20114;-76
2022/01/03 03:55:57;;;;;;;5.30;1.50;;;;;;;9.65;69.93;95571.03;5090253;28;20805;-76
2022/01/03 03:58:22;;;;;;;4.43;1.40;;;;;;;9.66;70.04;95585.75;5091480;27;20067;-76
2022/01/03 04:00:48;;;;;;;7.07;1.98;;;;;;;9.60;70.59;95575.50;5099472;27;20063;-76
2022/01/03 04:03:13;;;;;;;4.53;1.50;;;;;;;9.57;70.63;95586.50;5106210;28;20047;-76
2022/01/03 04:05:39;;;;;;;8.80;1.60;;;;;;;9.49;70.45;95585.97;5101328;28;20040;-76
2022/01/03 04:08:04;;;;;;;4.50;1.63;;;;;;;9.47;71.28;95587.31;5090331;28;20043;-76
2022/01/03 04:10:30;;;;;;;7.18;1.75;;;;;;;9.44;71.13;95583.34;5093160;27;20047;-76
2022/01/03 04:12:55;;;;;;;6.20;1.95;;;;;;;9.48;70.92;95584.41;5115429;27;20046;-76
2022/01/03 04:15:21;;;;;;;6.97;1.85;;;;;;;9.46;71.23;95589.13;5090020;28;20523;-76
2022/01/03 04:17:46;;;;;;;4.78;1.60;;;;;;;9.53;70.67;95594.91;5093515;28;20044;-77
2022/01/03 04:20:15;;;;;;;3.47;1.42;;;;;;;9.52;70.38;95590.72;5114026;27;20075;-76
2022/01/03 04:22:42;;;;;;;7.10;1.70;;;;;;;9.51;70.54;95590.97;5098864;27;20036;-76
2022/01/03 04:25:08;;;;;;;6.30;1.45;;;;;;;9.55;70.65;95599.91;5100714;28;20046;-76
2022/01/03 04:27:34;;;;;;;11.52;1.60;;;;;;;9.50;70.69;95608.56;5090494;28;20085;-76
2022/01/03 04:29:59;;;;;;;2.70;1.42;;;;;;;9.59;70.47;95600.19;5089758;28;20082;-76
2022/01/03 04:32:25;;;;;;;4.68;1.50;;;;;;;9.54;71.04;95599.13;5100732;27;20040;-76
2022/01/03 04:34:50;;;;;;;4.60;1.30;;;;;;;9.53;70.58;95597.53;5103915;27;20065;-76
2022/01/03 04:37:16;;;;;;;6.10;1.35;;;;;;;9.62;70.35;95589.16;5089982;28;20046;-76
2022/01/03 04:39:42;;;;;;;4.28;1.58;;;;;;;9.46;70.93;95602.25;5108443;28;20039;-76
2022/01/03 04:42:08;;;;;;;5.80;1.55;;;;;;;9.48;70.52;95594.94;5095909;28;20468;-76
2022/01/03 04:44:34;;;;;;;7.22;1.65;;;;;;;9.50;70.99;95592.81;5089700;28;20040;-76
2022/01/03 04:46:59;;;;;;;6.82;1.45;;;;;;;9.45;71.06;95602.53;5089016;28;20048;-75
2022/01/03 04:49:25;;;;;;;4.47;1.20;;;;;;;9.53;70.52;95602.81;5095599;28;20043;-76
2022/01/03 04:51:50;;;;;;;5.43;1.60;;;;;;;9.51;70.76;95589.16;5104569;28;20044;-75
2022/01/03 04:54:16;;;;;;;3.33;1.70;;;;;;;9.54;70.79;95593.88;5090835;28;20048;-76
2022/01/03 04:56:42;;;;;;;9.50;1.63;;;;;;;9.50;71.04;95599.91;5089039;28;20044;-76
2022/01/03 04:59:07;;;;;;;4.15;1.50;;;;;;;9.36;71.34;95599.63;5104516;28;20543;-76
2022/01/03 05:01:33;;;;;;;7.60;1.80;;;;;;;9.52;70.61;95601.25;5102524;28;20036;-76
2022/01/03 05:03:58;;;;;;;3.50;1.50;;;;;;;9.46;71.26;95604.88;5096762;28;20453;-76
2022/01/03 05:06:24;;;;;;;4.55;1.58;;;;;;;9.47;70.59;95588.09;5103413;28;20572;-75
2022/01/03 05:08:49;;;;;;;3.58;1.40;;;;;;;9.43;71.12;95596.75;5098893;28;20050;-76
2022/01/03 05:11:15;;;;;;;4.72;1.48;;;;;;;9.44;70.95;95593.88;5089148;28;20036;-76
2022/01/03 05:13:41;;;;;;;4.85;1.60;;;;;;;9.39;70.97;95596.47;5089219;28;20055;-76
2022/01/03 05:16:06;;;;;;;5.15;1.63;;;;;;;9.34;71.43;95601.72;5088737;28;20055;-76
2022/01/03 05:18:32;;;;;;;10.27;1.60;;;;;;;9.40;71.15;95595.41;5100662;28;20046;-76
2022/01/03 05:20:58;;;;;;;6.22;1.60;;;;;;;9.40;71.50;95603.31;5095090;28;20048;-76
2022/01/03 05:23:23;;;;;;;6.45;1.60;;;;;;;9.35;71.23;95605.91;5070774;28;20651;-75
2022/01/03 05:25:49;;;;;;;2.47;1.08;;;;;;;9.43;71.03;95592.28;5094457;28;20072;-76
2022/01/03 05:28:15;;;;;;;5.25;1.70;;;;;;;9.35;71.37;95611.16;5090337;28;20043;-76
2022/01/03 05:30:41;;;;;;;6.70;2.03;;;;;;;9.36;71.18;95610.13;5088938;28;20429;-76
2022/01/03 05:33:07;;;;;;;3.78;1.30;;;;;;;9.25;71.31;95600.63;5103114;28;20497;-76
2022/01/03 05:35:32;;;;;;;5.82;1.40;;;;;;;9.35;71.41;95611.16;5100211;28;20051;-76
2022/01/03 05:37:58;;;;;;;11.98;1.73;;;;;;;9.32;71.95;95611.69;5085387;28;20089;-76
2022/01/03 05:40:24;;;;;;;10.25;1.80;;;;;;;9.26;71.63;95624.00;5103233;28;20756;-76
2022/01/03 05:42:51;;;;;;;2.10;1.10;;;;;;;9.31;71.25;95625.84;5094335;28;20096;-77
2022/01/03 05:45:16;;;;;;;8.13;2.03;;;;;;;9.35;71.24;95626.91;5107669;28;20036;-76
2022/01/03 05:47:45;;;;;;;4.35;1.40;;;;;;;9.38;70.98;95615.91;5080226;28;20052;-76
2022/01/03 05:50:11;;;;;;;5.35;1.50;;;;;;;9.36;70.70;95612.75;5088554;28;20047;-76
2022/01/03 05:52:37;;;;;;;6.45;1.30;;;;;;;9.30;71.07;95614.56;5108183;27;20056;-75
2022/01/03 05:55:04;;;;;;;6.40;1.45;;;;;;;9.22;71.10;95622.16;5106586;28;20055;-76
2022/01/03 05:57:30;;;;;;;8.02;1.35;;;;;;;9.28;70.89;95621.13;5088495;28;20497;-76
2022/01/03 05:59:55;;;;;;;3.03;1.40;;;;;;;9.27;71.08;95624.81;5095394;28;20046;-76
2022/01/03 06:02:21;;;;;;;5.72;1.50;;;;;;;9.30;70.63;95635.56;5119727;28;20047;-76
2022/01/03 06:07:19;;;;;;;4.72;1.38;;;;;;;9.36;70.26;95624.03;5107035;28;20457;-76
2022/01/03 06:09:45;;;;;;;8.55;1.67;;;;;;;9.30;70.43;95634.78;5106062;28;20493;-76
2022/01/03 06:12:11;;;;;;;7.88;1.58;;;;;;;9.27;70.49;95630.84;5088028;28;20662;-76
2022/01/03 06:14:37;;;;;;;5.30;1.25;;;;;;;9.25;70.51;95634.75;5070158;28;20047;-76
2022/01/03 06:17:04;;;;;;;3.60;1.27;;;;;;;9.23;70.72;95629.00;5100560;28;20537;-76
2022/01/03 06:19:31;;;;;;;6.97;1.70;;;;;;;9.12;71.03;95639.47;5100096;28;20036;-76
2022/01/03 06:21:57;;;;;;;7.72;1.50;;;;;;;9.13;71.23;95630.53;5116362;28;20039;-76
2022/01/03 06:24:23;;;;;;;7.75;1.50;;;;;;;9.21;70.99;95641.56;5106202;28;20503;-76
2022/01/03 06:26:48;;;;;;;7.70;1.65;;;;;;;9.18;71.06;95627.94;5097370;28;20027;-76
2022/01/03 06:29:15;;;;;;;5.18;1.23;;;;;;;9.16;71.07;95637.88;5116143;28;20056;-76
2022/01/03 06:31:42;;;;;;;3.58;1.20;;;;;;;9.11;71.13;95632.63;5088558;28;20471;-76
2022/01/03 06:34:07;;;;;;;5.38;1.38;;;;;;;9.16;71.03;95624.75;5087841;28;20410;-76
2022/01/03 06:36:34;;;;;;;5.28;1.80;;;;;;;9.07;71.26;95631.56;5089345;28;20058;-76
2022/01/03 06:38:59;;;;;;;9.45;2.40;;;;;;;9.22;70.65;95627.41;5090017;28;20467;-76
2022/01/03 06:41:26;;;;;;;4.22;1.30;;;;;;;9.14;70.79;95621.59;5116501;28;20039;-76
2022/01/03 06:43:52;;;;;;;2.80;1.13;;;;;;;9.07;71.12;95628.94;5108505;28;20124;-76
2022/01/03 06:46:18;;;;;;;5.30;1.55;;;;;;;9.01;71.30;95627.34;5087754;28;20553;-75
2022/01/03 06:48:46;;;;;;;5.25;1.35;;;;;;;9.01;71.41;95632.59;5120239;28;20117;-76
2022/01/03 06:51:12;;;;;;;4.15;1.42;;;;;;;8.95;71.85;95625.72;5106525;28;20046;-76
2022/01/03 06:53:38;;;;;;;9.80;2.00;;;;;;;9.05;71.04;95628.41;5106704;28;20040;-75
2022/01/03 06:56:04;;;;;;;6.40;1.90;;;;;;;9.12;71.01;95626.34;5101839;28;20519;-76
2022/01/03 06:58:31;;;;;;;7.38;1.52;;;;;;;9.08;70.92;95634.97;5115678;28;20141;-76
2022/01/03 07:00:57;;;;;;;8.68;1.50;;;;;;;9.11;70.85;95632.63;5089866;28;20044;-76
2022/01/03 07:03:23;;;;;;;4.57;1.50;;;;;;;8.95;71.48;95641.47;5092685;28;20036;-76
2022/01/03 07:05:48;;;;;;;6.68;2.15;;;;;;;8.99;71.41;95637.28;5091997;28;20054;-76
2022/01/03 07:08:14;;;;;;;4.82;1.30;;;;;;;9.10;70.56;95635.50;5110440;27;20040;-75
2022/01/03 07:10:39;;;;;;;8.00;1.63;;;;;;;9.05;71.08;95632.84;5102020;27;20505;-75
2022/01/03 07:13:05;;;;;;;5.25;1.70;;;;;;;9.03;70.85;95640.97;5111983;28;20410;-75
2022/01/03 07:20:58;;;;;;;7.45;1.77;;;;;;;8.96;71.33;95632.56;5095091;28;20276;-76
2022/01/03 07:23:24;;;;;;;6.90;1.58;;;;;;;8.95;71.01;95638.84;5110963;27;20532;-75
2022/01/03 07:25:50;;;;;;;4.32;1.60;;;;;;;8.94;70.85;95642.53;5116660;27;20523;-75
2022/01/03 07:28:17;;;;;;;7.05;1.52;;;;;;;9.05;70.55;95638.91;5106960;27;20079;-75
2022/01/03 07:30:43;;;;;;;6.72;1.52;;;;;;;8.92;70.69;95645.41;5102833;28;20043;-76
2022/01/03 07:33:09;;;;;;;7.68;1.20;;;;;;;9.01;70.69;95643.09;5100331;28;20044;-76
2022/01/03 07:35:34;;;;;;;9.88;1.38;;;;;;;8.90;71.22;95651.94;5091992;28;20064;-75
2022/01/03 07:38:02;;;;;;;4.78;1.42;;;;;;;9.05;71.06;95644.16;5100390;28;20043;-76
2022/01/03 07:40:29;;;;;;;5.53;1.40;;;;;;;9.01;70.90;95638.63;5102228;28;20085;-74
2022/01/03 07:42:55;;;;;;;6.03;1.70;;;;;;;9.12;70.68;95644.72;5101128;27;20085;-74
2022/01/03 07:45:21;;;;;;;7.80;1.70;;;;;;;9.07;69.76;95642.06;5112916;27;20047;-75
2022/01/03 07:47:47;;;;;;;5.28;1.45;;;;;;;9.05;70.02;95644.16;5099478;28;20031;-76
2022/01/03 07:50:13;;;;;;;5.80;1.20;;;;;;;9.00;70.22;95644.13;5096073;28;20071;-77
2022/01/03 07:52:39;;;;;;;6.45;1.60;;;;;;;8.91;70.73;95637.78;5096727;28;20485;-75
2022/01/03 07:55:06;;;;;;;7.93;1.42;;;;;;;8.91;70.47;95638.56;5103322;28;20471;-74
2022/01/03 07:57:32;;;;;;;7.93;1.40;;;;;;;9.01;70.15;95643.88;5091768;28;20047;-76
2022/01/03 07:59:58;;;;;;;5.75;1.25;;;;;;;9.09;69.26;95637.31;5102760;28;20054;-75
2022/01/03 08:02:24;;;;;;;6.18;1.08;;;;;;;9.04;69.91;95642.56;5111570;28;20043;-75
2022/01/03 08:04:49;;;;;;;5.93;1.10;;;;;;;9.13;69.01;95635.00;5110678;28;20067;-75
2022/01/03 08:07:15;;;;;;;5.00;1.10;;;;;;;9.13;68.91;95632.38;5106784;28;20043;-75
2022/01/03 08:09:40;;;;;;;4.32;1.15;;;;;;;9.12;69.22;95634.22;5102690;28;20035;-75
2022/01/03 08:12:07;;;;;;;3.33;1.35;;;;;;;9.11;68.81;95632.63;5111133;28;20082;-75
2022/01/03 08:14:34;;;;;;;7.97;1.50;;;;;;;9.19;68.62;95634.75;5083036;28;20651;-73
2022/01/03 08:16:59;;;;;;;4.20;1.33;;;;;;;9.22;68.24;95627.41;5092742;28;20044;-76
2022/01/03 08:19:25;;;;;;;4.32;1.20;;;;;;;9.13;69.03;95641.03;5091942;28;20441;-74
2022/01/03 08:21:50;;;;;;;6.22;1.90;;;;;;;9.15;68.32;95627.63;5093972;28;20124;-75
2022/01/03 08:24:17;;;;;;;6.60;1.33;;;;;;;9.21;68.59;95631.06;5109761;28;20044;-75
2022/01/03 08:26:42;;;;;;;5.50;1.85;;;;;;;9.40;67.38;95634.03;5100213;28;20044;-76
2022/01/03 08:29:09;;;;;;;8.30;1.27;;;;;;;9.38;67.98;95642.19;5096060;28;20039;-75
2022/01/03 08:31:37;;;;;;;9.55;1.75;;;;;;;9.33;67.65;95636.91;5091204;28;20096;-74
2022/01/03 08:34:04;;;;;;;6.00;1.38;;;;;;;9.51;66.87;95646.13;5107064;28;20512;-75
2022/01/03 08:36:30;;;;;;;7.00;1.20;;;;;;;9.47;67.34;95638.00;5091383;28;20497;-74
2022/01/03 08:38:55;;;;;;;4.07;1.23;;;;;;;9.56;66.89;95638.28;5095451;28;20044;-75
2022/01/03 08:41:21;;;;;;;3.58;1.10;;;;;;;9.51;66.63;95641.69;5089840;28;20111;-76
2022/01/03 08:43:46;;;;;;;13.02;1.67;;;;;;;9.44;67.21;95629.81;5090144;28;20040;-76
2022/01/03 08:46:12;;;;;;;6.28;1.58;;;;;;;9.44;67.17;95630.63;5109966;28;20043;-77
2022/01/03 08:48:37;;;;;;;5.53;1.55;;;;;;;9.62;66.58;95621.47;5088619;28;20147;-75
2022/01/03 08:51:03;;;;;;;2.67;1.10;;;;;;;9.71;66.14;95629.63;5105219;28;22600;-77
2022/01/03 08:53:29;;;;;;;5.07;1.17;;;;;;;9.73;65.76;95627.53;5109064;28;20040;-76
2022/01/03 08:55:55;;;;;;;5.47;1.20;;;;;;;9.72;65.90;95636.47;5092888;28;20109;-77
2022/01/03 08:58:22;;;;;;;3.50;1.27;;;;;;;9.76;65.51;95624.38;5100144;28;20516;-75
2022/01/03 09:00:48;;;;;;;9.32;1.42;;;;;;;9.75;65.20;95625.44;5096203;28;20892;-76
2022/01/03 09:03:14;;;;;;;4.82;1.17;;;;;;;9.87;64.62;95628.63;5098867;28;20126;-76
2022/01/03 09:05:40;;;;;;;7.40;1.40;;;;;;;9.80;64.96;95622.81;5108278;27;20039;-77
2022/01/03 09:08:05;;;;;;;5.50;1.25;;;;;;;9.89;64.05;95615.97;5108469;28;20036;-76
2022/01/03 09:10:31;;;;;;;6.32;1.30;;;;;;;9.95;63.75;95616.00;5115512;27;20032;-75
2022/01/03 09:12:57;;;;;;;6.97;1.40;;;;;;;9.93;64.69;95615.47;5113253;27;20124;-78
2022/01/03 09:15:23;;;;;;;9.20;1.38;;;;;;;9.91;63.87;95628.09;5111825;28;20035;-77
2022/01/03 09:17:49;;;;;;;4.28;1.08;;;;;;;9.93;63.83;95626.78;5108829;28;20785;-76
2022/01/03 09:20:15;;;;;;;3.30;1.20;;;;;;;9.98;63.62;95612.84;5090961;28;20083;-77
2022/01/03 09:22:46;;;;;;;4.70;1.20;;;;;;;10.00;63.20;95621.28;5095025;28;20031;-75
2022/01/03 09:30:35;;;;;;;4.78;1.10;;;;;;;10.07;63.14;95629.69;5110973;28;20100;-74
2022/01/03 09:33:01;;;;;;;5.00;1.40;;;;;;;10.05;62.54;95626.50;5108416;28;20043;-74
2022/01/03 09:35:27;;;;;;;5.72;1.42;;;;;;;10.08;62.93;95618.09;5071824;28;20052;-74
2022/01/03 09:37:52;;;;;;;4.28;1.77;;;;;;;10.06;62.79;95620.22;5089316;28;20040;-75
2022/01/03 09:40:18;;;;;;;4.03;0.98;;;;;;;10.16;63.03;95635.22;5104056;28;20072;-74
2022/01/03 09:42:49;;;;;;;4.82;1.30;;;;;;;10.03;63.25;95628.63;5110232;27;20036;-75
2022/01/03 09:45:15;;;;;;;2.13;0.90;;;;;;;10.05;63.00;95629.16;5099222;28;20048;-75
2022/01/03 09:47:44;;;;;;;7.13;1.10;;;;;;;10.08;64.35;95626.00;5089652;28;20089;-74
2022/01/03 09:50:12;;;;;;;5.18;1.40;;;;;;;10.14;63.76;95627.59;5090228;28;20131;-75
2022/01/03 09:52:41;;;;;;;3.70;1.10;;;;;;;10.05;64.04;95629.16;5089913;28;20454;-75
2022/01/03 09:55:07;;;;;;;3.53;1.50;;;;;;;10.23;63.53;95626.00;5076833;28;20097;-75
2022/01/03 09:57:33;;;;;;;3.40;1.13;;;;;;;10.30;63.87;95614.41;5107291;27;20460;-74
2022/01/03 10:00:00;;;;;;;5.78;1.13;;;;;;;10.30;63.52;95624.94;5075912;28;20047;-74
2022/01/03 10:02:26;;;;;;;4.25;1.30;;;;;;;10.26;63.19;95614.16;5100506;28;20039;-75
2022/01/03 10:04:52;;;;;;;3.53;1.08;;;;;;;10.17;63.95;95606.03;5108464;28;20043;-75
2022/01/03 10:07:19;;;;;;;3.97;1.48;;;;;;;10.35;64.81;95609.19;5095413;28;20459;-73
2022/01/03 10:09:45;;;;;;;5.88;1.35;;;;;;;10.44;64.43;95604.94;5106582;28;20047;-74
2022/01/03 10:12:17;;;;;;;4.90;1.30;;;;;;;10.35;63.38;95601.28;5114484;28;20501;-73
2022/01/03 10:14:44;;;;;;;7.93;1.67;;;;;;;10.35;63.36;95606.56;5099681;28;20402;-74
2022/01/03 10:17:11;;;;;;;5.70;1.30;;;;;;;10.34;63.64;95620.75;5096868;28;20047;-74
2022/01/03 10:20:10;;;;;;;3.47;1.23;;;;;;;10.39;63.28;95604.97;5097343;28;20051;-74
2022/01/03 10:22:38;;;;;;;4.47;1.30;;;;;;;10.39;63.24;95610.22;5050700;28;20056;-75
2022/01/03 10:25:13;;;;;;;2.53;1.23;;;;;;;10.35;63.97;95606.56;5100368;28;20036;-74
2022/01/03 10:27:52;;;;;;;2.63;1.10;;;;;;;10.46;62.96;95600.22;5097675;28;20044;-75
2022/01/03 10:30:40;;;;;;;5.57;1.48;;;;;;;10.51;62.50;95613.34;5095467;28;20044;-74
2022/01/03 10:33:17;;;;;;;6.10;1.65;;;;;;;10.51;62.61;95610.72;5098041;28;20055;-75
2022/01/03 10:35:46;;;;;;;3.33;1.27;;;;;;;10.56;62.46;95602.06;5094460;28;20063;-75
2022/01/03 10:38:31;;;;;;;3.78;1.30;;;;;;;10.51;62.93;95592.31;5090153;28;20047;-75
2022/01/03 10:41:17;;;;;;;;;;;;;;;10.46;62.24;95610.75;5103149;27;20043;-76
2022/01/03 10:43:50;;;;;;;4.93;1.38;;;;;;;10.54;62.07;95604.97;5104017;27;20449;-76
2022/01/03 10:46:20;;;;;;;3.72;1.10;;;;;;;10.61;61.98;95582.84;5102957;28;20040;-76
2022/01/03 10:48:47;;;;;;;2.90;1.10;;;;;;;10.51;62.20;95584.41;5110763;28;20051;-76
2022/01/03 10:51:20;;;;;;;6.63;1.33;;;;;;;10.56;62.34;95592.31;5085228;28;20044;-76
2022/01/03 10:53:46;;;;;;;3.40;1.10;;;;;;;10.53;62.14;95577.06;5107416;28;20047;-76
2022/01/03 10:56:35;;;;;;;5.30;1.40;;;;;;;10.41;62.86;95589.69;5087477;28;20492;-76
2022/01/03 10:59:04;;;;;;;7.97;1.58;;;;;;;10.54;62.64;95585.72;5106696;28;20450;-76
2022/01/03 11:01:31;;;;;;;7.65;1.40;;;;;;;10.43;62.87;95581.53;5100409;27;20089;-78
2022/01/03 11:04:00;;;;;;;6.03;1.45;;;;;;;10.45;63.15;95582.84;5095206;27;20040;-77
2022/01/03 11:11:38;;;;;;;;;;;;;;;10.46;63.28;95571.28;5100914;28;20040;-74
2022/01/03 11:14:04;;;;;;;3.08;1.15;;;;;;;10.54;62.96;95556.78;5095573;28;20433;-74
2022/01/03 11:16:35;;;;;;;10.10;1.30;;;;;;;10.56;62.81;95555.47;5097262;27;20036;-75
2022/01/03 11:19:00;;;;;;;4.95;1.45;;;;;;;10.46;63.32;95544.97;5114307;27;20460;-75
2022/01/03 11:21:26;;;;;;;4.07;1.30;;;;;;;10.58;62.88;95553.34;5110407;27;20040;-75
2022/01/03 11:24:05;;;;;;;5.28;1.50;;;;;;;10.73;62.65;95543.81;5104100;27;20042;-76
2022/01/03 11:26:35;;;;;;;6.53;1.60;;;;;;;10.66;62.41;95543.31;5098537;28;20048;-74
2022/01/03 11:29:01;;;;;;;5.65;1.23;;;;;;;10.86;62.68;95532.72;5110453;28;20050;-74
2022/01/03 11:31:29;;;;;;;3.60;1.05;;;;;;;10.88;62.48;95543.78;5101993;28;20419;-77
2022/01/03 11:33:57;;;;;;;3.78;1.35;;;;;;;10.78;62.23;95541.19;5110144;28;20051;-77
2022/01/03 11:36:23;;;;;;;7.80;1.38;;;;;;;10.73;61.90;95517.50;5111383;27;20085;-78
2022/01/03 11:38:50;;;;;;;4.78;1.38;;;;;;;10.62;62.25;95521.25;5103651;27;20043;-80
2022/01/03 11:41:16;;;;;;;5.45;1.20;;;;;;;10.67;62.40;95529.13;5114045;27;20043;-78
2022/01/03 11:43:43;;;;;;;3.33;1.20;;;;;;;10.67;61.98;95539.66;5118920;27;20039;-80
2022/01/03 11:46:09;;;;;;;2.75;0.90;;;;;;;10.70;62.46;95512.78;5104575;28;20040;-83
2022/01/03 11:48:35;;;;;;;4.05;1.20;;;;;;;10.71;62.26;95509.09;5114830;27;20040;-78
2022/01/03 11:51:07;;;;;;;3.55;1.20;;;;;;;10.72;62.11;95511.47;5121923;27;20035;-77
2022/01/03 11:53:42;;;;;;;3.78;1.10;;;;;;;10.85;61.53;95514.56;5096634;27;20039;-75
2022/01/03 11:56:17;;;;;;;5.30;1.10;;;;;;;10.66;61.70;95507.28;5108479;27;20534;-78
2022/01/03 11:59:06;;;;;;;4.65;1.08;;;;;;;10.80;61.21;95507.47;5103319;28;20044;-78
2022/01/03 12:04:34;;;;;;;4.72;1.23;;;;;;;10.65;62.39;95489.13;5097034;28;20040;-77